首页
METAR-TAF:

METAR-TAF

机场 :

拉斯海玛, 阿拉伯联合酋长国

纬度: 25-37N, 经度: 055-56E, 海拔: 31米

当前天气观测

该预报发布于43分钟前的12:00 UTC
风速3节,风向北转西北
温度 40°C
湿度 38%
气压 1002 hPa
能見度: 8000

METAR: OMRK 191200Z 33003KT 8000 NSC 40/23 Q1002 A2959

时间: 16:43 (12:43 UTC)

预报

该预报发布于1小时和44分钟前的10:59 UTC
预报有效从19日的 12点(UTC)到 20日的 18点(UTC)
风速8节,风向东转东南
能見度: 8000
几率 40%
从 19日的 12点(UTC)到 19日的 15点(UTC)
风速12节,风向
成为
从 20日的 08点(UTC)到 20日的 10点(UTC)
风速10节,风向
成为
从 20日的 15点(UTC)到 20日的 17点(UTC)
风速7节,风向东北

TAF: OMRK 191059Z 1912/2018 12008KT 8000 NSC PROB40 1912/1915 35012KT BECMG 2008/2010 35010KT BECMG 2015/2017 05007KT

超过4000个机场的气象观测和天气预报(METAR&TAF报告)。

可查询的气象台以黄色和红色小点在地图上表示。

将鼠标移到小点上方,可查看气象台名称。

然后点击查看天气观测和预报。

如需切换地图:点击带黑十字的绿色按钮放大地图;点击带横线的绿色按钮缩小地图;或者点击绿色箭头查看邻近地区的地图。


METAR-TAF: